createdAt,value
2018-03-18T07:27:01.627Z,-58.00
2018-03-18T07:28:01.570Z,-58.00
2018-03-18T07:29:55.369Z,-59.00
2018-03-18T07:30:55.330Z,-59.00
2018-03-18T07:32:49.154Z,-58.00
2018-03-18T07:33:49.097Z,-58.00
2018-03-18T07:35:42.901Z,-59.00
2018-03-18T07:36:42.865Z,-59.00
2018-03-18T07:38:36.751Z,-59.00
2018-03-18T07:39:36.657Z,-59.00
2018-03-18T07:41:30.463Z,-59.00
2018-03-18T07:42:30.420Z,-59.00
2018-03-18T07:44:24.248Z,-59.00
2018-03-18T07:45:24.192Z,-59.00
2018-03-18T07:47:18.529Z,-59.00
2018-03-18T07:48:18.464Z,-58.00
2018-03-18T07:50:12.292Z,-59.00
2018-03-18T07:51:12.277Z,-59.00
2018-03-18T07:53:06.039Z,-59.00
2018-03-18T07:54:06.008Z,-59.00
2018-03-18T07:55:59.832Z,-59.00
2018-03-18T07:56:59.776Z,-59.00
2018-03-18T07:58:53.611Z,-59.00
2018-03-18T07:59:53.560Z,-59.00
2018-03-18T08:01:47.371Z,-59.00
2018-03-18T08:02:47.329Z,-59.00
2018-03-18T08:04:41.164Z,-59.00
2018-03-18T08:05:41.103Z,-59.00
2018-03-18T08:07:34.916Z,-59.00
2018-03-18T08:08:34.886Z,-59.00
2018-03-18T08:10:28.716Z,-61.00
2018-03-18T08:11:28.667Z,-59.00
2018-03-18T08:13:22.474Z,-59.00
2018-03-18T08:14:22.438Z,-59.00
2018-03-18T08:16:16.266Z,-59.00
2018-03-18T08:17:16.212Z,-59.00
2018-03-18T08:19:10.015Z,-59.00
2018-03-18T08:20:09.987Z,-60.00
2018-03-18T08:22:03.816Z,-59.00
2018-03-18T08:23:03.763Z,-59.00
2018-03-18T08:24:57.589Z,-59.00
2018-03-18T08:25:57.537Z,-59.00
2018-03-18T08:27:51.336Z,-59.00
2018-03-18T08:28:51.308Z,-59.00
2018-03-18T08:30:45.137Z,-58.00
2018-03-18T08:31:45.082Z,-63.00
2018-03-18T08:33:38.894Z,-61.00
2018-03-18T08:34:38.861Z,-61.00
2018-03-18T08:36:32.690Z,-61.00
2018-03-18T08:37:32.631Z,-61.00
2018-03-18T08:39:26.946Z,-61.00
2018-03-18T08:40:27.002Z,-60.00
2018-03-18T08:42:20.744Z,-60.00
2018-03-18T08:43:20.692Z,-60.00
2018-03-18T08:45:14.498Z,-61.00
2018-03-18T08:46:14.458Z,-59.00
2018-03-18T08:48:08.302Z,-55.00
2018-03-18T08:49:08.267Z,-60.00
2018-03-18T08:51:02.080Z,-61.00
2018-03-18T08:52:02.024Z,-60.00
2018-03-18T08:53:55.834Z,-60.00
2018-03-18T08:54:55.804Z,-60.00
2018-03-18T08:56:49.634Z,-59.00
2018-03-18T08:57:49.577Z,-58.00
2018-03-18T08:59:43.392Z,-60.00
2018-03-18T09:00:43.360Z,-60.00
2018-03-18T09:02:37.197Z,-57.00
2018-03-18T09:03:37.146Z,-57.00
2018-03-18T09:05:31.458Z,-52.00
2018-03-18T09:06:31.420Z,-50.00
2018-03-18T09:08:25.246Z,-49.00
2018-03-18T09:09:25.194Z,-49.00
2018-03-18T09:11:20.177Z,-53.00
2018-03-18T09:12:19.473Z,-54.00
2018-03-18T09:14:13.278Z,-52.00
2018-03-18T09:15:13.244Z,-51.00
2018-03-18T09:17:07.078Z,-53.00
2018-03-18T09:18:07.022Z,-52.00
2018-03-18T09:20:00.828Z,-52.00
2018-03-18T09:21:00.799Z,-53.00
2018-03-18T09:22:54.644Z,-50.00
2018-03-18T09:23:54.580Z,-51.00
2018-03-18T09:25:48.396Z,-53.00
2018-03-18T09:26:48.363Z,-53.00
2018-03-18T09:28:42.194Z,-53.00
2018-03-18T09:29:42.139Z,-51.00
2018-03-18T09:31:35.956Z,-56.00
2018-03-18T09:32:35.912Z,-51.00
2018-03-18T09:34:29.749Z,-53.00
2018-03-18T09:35:29.696Z,-54.00
2018-03-18T09:37:23.508Z,-49.00
2018-03-18T09:38:23.470Z,-49.00
2018-03-18T09:40:17.314Z,-49.00
2018-03-18T09:41:17.261Z,-48.00
2018-03-18T09:43:11.073Z,-50.00
2018-03-18T09:44:11.043Z,-50.00
2018-03-18T09:45:11.073Z,-50.00
2018-03-18T09:46:10.988Z,-50.00
2018-03-18T09:47:10.961Z,-50.00
2018-03-18T09:48:10.938Z,-49.00
2018-03-18T09:49:10.909Z,-49.00
2018-03-18T09:50:10.880Z,-49.00
2018-03-18T09:51:10.858Z,-49.00
2018-03-18T09:52:10.830Z,-50.00
2018-03-18T09:53:10.808Z,-49.00
2018-03-18T09:54:10.792Z,-49.00
2018-03-18T09:55:10.749Z,-50.00
2018-03-18T09:56:10.722Z,-49.00
2018-03-18T09:57:10.696Z,-49.00
2018-03-18T09:58:10.669Z,-49.00
2018-03-18T09:59:10.646Z,-48.00
2018-03-18T10:00:10.619Z,-49.00
2018-03-18T10:01:10.589Z,-49.00
2018-03-18T10:02:10.588Z,-48.00
2018-03-18T10:03:10.561Z,-49.00
2018-03-18T10:04:10.531Z,-48.00
2018-03-18T10:05:10.484Z,-49.00
2018-03-18T10:06:10.461Z,-49.00
2018-03-18T10:07:10.431Z,-48.00
2018-03-18T10:08:10.456Z,-49.00
2018-03-18T10:09:10.396Z,-49.00
2018-03-18T10:10:10.354Z,-49.00
2018-03-18T10:11:10.336Z,-50.00
2018-03-18T10:12:10.302Z,-50.00
2018-03-18T10:13:10.270Z,-50.00
2018-03-18T10:14:10.243Z,-49.00
2018-03-18T10:15:10.216Z,-50.00
2018-03-18T10:16:10.191Z,-50.00
2018-03-18T10:17:10.158Z,-51.00
2018-03-18T10:18:10.136Z,-50.00
2018-03-18T10:19:10.105Z,-49.00
2018-03-18T10:20:10.099Z,-50.00
2018-03-18T10:21:10.056Z,-49.00
2018-03-18T10:22:10.028Z,-48.00
2018-03-18T10:23:10.000Z,-49.00
2018-03-18T10:24:09.976Z,-51.00
2018-03-18T10:25:09.948Z,-51.00
2018-03-18T10:26:09.918Z,-51.00
2018-03-18T10:27:09.893Z,-49.00
2018-03-18T10:28:09.868Z,-49.00
2018-03-18T10:29:09.838Z,-49.00
2018-03-18T10:30:09.813Z,-48.00
2018-03-18T10:31:09.794Z,-50.00
2018-03-18T10:32:09.758Z,-49.00
2018-03-18T10:33:09.740Z,-48.00
2018-03-18T10:34:09.712Z,-49.00
2018-03-18T10:35:09.676Z,-49.00
2018-03-18T10:36:09.656Z,-49.00
2018-03-18T10:37:09.627Z,-49.00
2018-03-18T10:38:09.602Z,-49.00
2018-03-18T10:39:09.576Z,-48.00
2018-03-18T10:40:09.548Z,-48.00
2018-03-18T10:41:09.520Z,-48.00
2018-03-18T10:42:09.493Z,-49.00
2018-03-18T10:43:09.472Z,-49.00
2018-03-18T10:44:09.441Z,-49.00
2018-03-18T10:45:09.410Z,-49.00
2018-03-18T10:46:09.389Z,-49.00
2018-03-18T10:47:09.381Z,-49.00
2018-03-18T10:48:09.329Z,-49.00
2018-03-18T10:49:09.306Z,-49.00
2018-03-18T10:50:09.280Z,-48.00
2018-03-18T10:51:09.251Z,-49.00
2018-03-18T10:52:09.226Z,-48.00
2018-03-18T10:53:09.226Z,-49.00
2018-03-18T10:54:09.169Z,-49.00
2018-03-18T10:55:09.139Z,-48.00
2018-03-18T10:56:09.116Z,-49.00
2018-03-18T10:57:09.091Z,-49.00
2018-03-18T10:58:09.072Z,-50.00
2018-03-18T10:59:09.032Z,-56.00
2018-03-18T11:00:09.009Z,-51.00
2018-03-18T11:01:08.982Z,-50.00
2018-03-18T11:02:08.953Z,-49.00
2018-03-18T11:03:08.926Z,-49.00
2018-03-18T11:04:08.904Z,-48.00
2018-03-18T11:05:08.872Z,-48.00
2018-03-18T11:06:08.927Z,-48.00
2018-03-18T11:07:08.876Z,-48.00
2018-03-18T11:08:08.877Z,-50.00
2018-03-18T11:09:08.814Z,-49.00
2018-03-18T11:10:08.744Z,-49.00
2018-03-18T11:11:08.715Z,-48.00
2018-03-18T11:12:08.689Z,-49.00
2018-03-18T11:13:08.665Z,-52.00
2018-03-18T11:14:08.642Z,-50.00
2018-03-18T11:15:08.634Z,-50.00
2018-03-18T11:16:08.598Z,-51.00
2018-03-18T11:17:08.556Z,-51.00
2018-03-18T11:18:08.524Z,-50.00
2018-03-18T11:19:08.501Z,-51.00
2018-03-18T11:20:08.480Z,-51.00
2018-03-18T11:21:08.445Z,-50.00
2018-03-18T11:22:08.418Z,-50.00
2018-03-18T11:23:08.391Z,-50.00
2018-03-18T11:24:08.368Z,-50.00
2018-03-18T11:25:08.341Z,-50.00
2018-03-18T11:26:08.310Z,-50.00
2018-03-18T11:27:08.284Z,-50.00
2018-03-18T11:28:08.264Z,-50.00
2018-03-18T11:29:08.228Z,-50.00
2018-03-18T11:30:08.221Z,-50.00
2018-03-18T11:31:08.177Z,-50.00
2018-03-18T11:32:08.156Z,-50.00
2018-03-18T11:33:08.125Z,-50.00
2018-03-18T11:34:08.094Z,-50.00
2018-03-18T11:35:08.071Z,-50.00
2018-03-18T11:36:08.043Z,-50.00
2018-03-18T11:37:08.013Z,-50.00
2018-03-18T11:38:07.996Z,-50.00
2018-03-18T11:39:07.960Z,-50.00
2018-03-18T11:40:07.934Z,-50.00
2018-03-18T11:41:07.905Z,-49.00
2018-03-18T11:42:07.879Z,-50.00
2018-03-18T11:43:07.851Z,-50.00
2018-03-18T11:44:07.826Z,-50.00
2018-03-18T11:45:07.803Z,-50.00
2018-03-18T11:46:07.770Z,-50.00
2018-03-18T11:47:07.750Z,-50.00
2018-03-18T11:48:07.730Z,-50.00
2018-03-18T11:49:07.688Z,-50.00
2018-03-18T11:50:07.663Z,-50.00
2018-03-18T11:51:07.641Z,-50.00
2018-03-18T11:52:07.604Z,-49.00
2018-03-18T11:53:07.586Z,-51.00
2018-03-18T11:54:07.555Z,-50.00
2018-03-18T11:55:07.528Z,-50.00
2018-03-18T11:56:07.500Z,-49.00
2018-03-18T11:57:07.483Z,-50.00
2018-03-18T11:58:07.446Z,-50.00
2018-03-18T11:59:07.427Z,-50.00
2018-03-18T12:00:07.397Z,-50.00
2018-03-18T12:01:07.395Z,-50.00
2018-03-18T12:02:07.339Z,-50.00
2018-03-18T12:03:07.321Z,-50.00
2018-03-18T12:04:07.284Z,-50.00
2018-03-18T12:05:07.254Z,-50.00
2018-03-18T12:06:07.233Z,-50.00
2018-03-18T12:07:07.201Z,-50.00
2018-03-18T12:08:07.178Z,-50.00
2018-03-18T12:09:07.148Z,-50.00
2018-03-18T12:10:07.115Z,-49.00
2018-03-18T12:11:07.089Z,-50.00
2018-03-18T12:12:07.066Z,-51.00
2018-03-18T12:13:07.039Z,-51.00
2018-03-18T12:14:07.008Z,-50.00
2018-03-18T12:15:06.982Z,-50.00
2018-03-18T12:16:06.952Z,-51.00
2018-03-18T12:17:06.924Z,-50.00
2018-03-18T12:18:06.906Z,-50.00
2018-03-18T12:19:06.867Z,-51.00
2018-03-18T12:20:06.843Z,-50.00
2018-03-18T12:21:06.818Z,-50.00
2018-03-18T12:22:06.791Z,-51.00
2018-03-18T12:23:06.762Z,-50.00
2018-03-18T12:24:06.738Z,-50.00
2018-03-18T12:25:06.707Z,-51.00
2018-03-18T12:26:06.677Z,-50.00
2018-03-18T12:27:06.650Z,-51.00
2018-03-18T12:28:06.670Z,-50.00
2018-03-18T12:29:06.606Z,-51.00
2018-03-18T12:30:06.568Z,-50.00
2018-03-18T12:31:06.539Z,-50.00
2018-03-18T12:32:06.514Z,-50.00
2018-03-18T12:33:06.489Z,-50.00
2018-03-18T12:34:06.456Z,-50.00
2018-03-18T12:35:06.431Z,-50.00
2018-03-18T12:36:06.404Z,-51.00
2018-03-18T12:37:06.377Z,-50.00
2018-03-18T12:38:06.349Z,-50.00
2018-03-18T12:39:06.337Z,-50.00
2018-03-18T12:40:06.295Z,-50.00
2018-03-18T12:41:06.273Z,-50.00
2018-03-18T12:42:06.241Z,-51.00
2018-03-18T12:43:06.211Z,-50.00
2018-03-18T12:44:06.185Z,-51.00
2018-03-18T12:45:06.154Z,-50.00
2018-03-18T12:46:06.125Z,-50.00
2018-03-18T12:47:06.100Z,-50.00
2018-03-18T12:48:06.072Z,-51.00
2018-03-18T12:49:06.045Z,-51.00
2018-03-18T12:50:06.018Z,-51.00
2018-03-18T12:51:05.996Z,-51.00
2018-03-18T12:52:05.960Z,-51.00
2018-03-18T12:53:05.937Z,-51.00
2018-03-18T12:54:05.909Z,-51.00
2018-03-18T12:55:05.881Z,-51.00
2018-03-18T12:56:05.850Z,-50.00
2018-03-18T12:57:05.827Z,-51.00
2018-03-18T12:58:05.797Z,-50.00
2018-03-18T12:59:05.771Z,-50.00
2018-03-18T13:00:05.749Z,-51.00
2018-03-18T13:01:05.722Z,-50.00
2018-03-18T13:02:05.692Z,-50.00
2018-03-18T13:03:05.660Z,-51.00
2018-03-18T13:04:05.633Z,-50.00
2018-03-18T13:05:05.608Z,-50.00
2018-03-18T13:06:05.576Z,-51.00
2018-03-18T13:07:05.552Z,-50.00
2018-03-18T13:08:05.541Z,-50.00
2018-03-18T13:09:05.520Z,-50.00
2018-03-18T13:10:05.467Z,-51.00
2018-03-18T13:11:05.442Z,-51.00
2018-03-18T13:12:05.420Z,-50.00
2018-03-18T13:13:05.394Z,-51.00
2018-03-18T13:14:05.354Z,-50.00
2018-03-18T13:15:05.340Z,-51.00
2018-03-18T13:16:05.307Z,-50.00
2018-03-18T13:17:05.281Z,-51.00
2018-03-18T13:18:05.254Z,-50.00
2018-03-18T13:19:05.223Z,-50.00
2018-03-18T13:20:05.200Z,-51.00
2018-03-18T13:21:05.168Z,-51.00
2018-03-18T13:22:05.146Z,-51.00
2018-03-18T13:23:05.120Z,-50.00
2018-03-18T13:24:05.087Z,-50.00
2018-03-18T13:25:05.060Z,-50.00
2018-03-18T13:26:05.032Z,-50.00
2018-03-18T13:27:05.010Z,-51.00
2018-03-18T13:28:04.982Z,-50.00
2018-03-18T13:29:04.956Z,-51.00
2018-03-18T13:30:04.933Z,-51.00
2018-03-18T13:31:04.897Z,-50.00
2018-03-18T13:32:04.869Z,-50.00
2018-03-18T13:33:04.846Z,-56.00
2018-03-18T13:34:04.815Z,-55.00
2018-03-18T13:35:04.782Z,-53.00
2018-03-18T13:36:04.766Z,-57.00
2018-03-18T13:37:04.733Z,-54.00
2018-03-18T13:38:04.711Z,-55.00
2018-03-18T13:39:04.684Z,-55.00
2018-03-18T13:40:04.655Z,-54.00
2018-03-18T13:41:04.629Z,-54.00
2018-03-18T13:42:04.602Z,-54.00
2018-03-18T13:43:04.573Z,-54.00
2018-03-18T13:44:04.552Z,-54.00
2018-03-18T13:45:04.521Z,-54.00
2018-03-18T13:46:04.490Z,-54.00
2018-03-18T13:47:04.487Z,-54.00
2018-03-18T13:48:04.439Z,-54.00
2018-03-18T13:49:04.415Z,-53.00
2018-03-18T13:50:04.435Z,-55.00
2018-03-18T13:51:04.359Z,-53.00
2018-03-18T13:52:04.340Z,-54.00
2018-03-18T13:53:04.322Z,-54.00
2018-03-18T13:54:04.285Z,-54.00
2018-03-18T13:55:04.255Z,-54.00
2018-03-18T13:56:04.229Z,-54.00
2018-03-18T13:57:04.211Z,-53.00
2018-03-18T13:58:04.177Z,-53.00
2018-03-18T13:59:04.149Z,-53.00
2018-03-18T14:00:04.132Z,-54.00
2018-03-18T14:01:04.101Z,-52.00
2018-03-18T14:02:04.075Z,-53.00
2018-03-18T14:03:04.044Z,-56.00
2018-03-18T14:04:04.022Z,-54.00
2018-03-18T14:05:03.995Z,-53.00
2018-03-18T14:06:03.964Z,-53.00
2018-03-18T14:07:03.937Z,-53.00
2018-03-18T14:08:03.932Z,-53.00
2018-03-18T14:09:03.887Z,-54.00
2018-03-18T14:10:03.864Z,-54.00
2018-03-18T14:11:03.874Z,-54.00
2018-03-18T14:12:03.812Z,-54.00
2018-03-18T14:13:03.781Z,-54.00
2018-03-18T14:14:03.758Z,-54.00
2018-03-18T14:15:03.735Z,-53.00
2018-03-18T14:16:03.704Z,-52.00
2018-03-18T14:17:03.675Z,-52.00
2018-03-18T14:18:03.650Z,-55.00
2018-03-18T14:19:03.626Z,-55.00
2018-03-18T14:20:03.627Z,-52.00
2018-03-18T14:21:03.569Z,-52.00
2018-03-18T14:22:03.543Z,-52.00
2018-03-18T14:23:03.511Z,-52.00
2018-03-18T14:24:03.491Z,-51.00
2018-03-18T14:25:03.468Z,-51.00
2018-03-18T14:26:03.437Z,-51.00
2018-03-18T14:27:03.411Z,-51.00
2018-03-18T14:28:03.388Z,-51.00
2018-03-18T14:29:03.362Z,-53.00
2018-03-18T14:30:03.334Z,-54.00
2018-03-18T14:31:03.310Z,-53.00
2018-03-18T14:32:03.281Z,-54.00
2018-03-18T14:33:03.260Z,-54.00
2018-03-18T14:34:03.229Z,-54.00
2018-03-18T14:35:03.211Z,-54.00
2018-03-18T14:36:03.176Z,-54.00
2018-03-18T14:37:03.152Z,-55.00
2018-03-18T14:38:03.125Z,-54.00
2018-03-18T14:39:03.104Z,-54.00
2018-03-18T14:40:03.074Z,-53.00
2018-03-18T14:41:03.047Z,-55.00
2018-03-18T14:42:03.023Z,-54.00
2018-03-18T14:43:02.999Z,-54.00
2018-03-18T14:44:02.968Z,-54.00
2018-03-18T14:45:03.008Z,-54.00
2018-03-18T14:46:02.912Z,-54.00
2018-03-18T14:47:02.890Z,-54.00
2018-03-18T14:48:02.869Z,-54.00
2018-03-18T14:49:02.840Z,-54.00
2018-03-18T14:50:02.814Z,-54.00
2018-03-18T14:51:02.783Z,-54.00
2018-03-18T14:52:02.755Z,-54.00
2018-03-18T14:53:02.735Z,-54.00
2018-03-18T14:54:02.708Z,-54.00
2018-03-18T14:55:02.684Z,-54.00
2018-03-18T14:56:02.653Z,-54.00
2018-03-18T14:57:02.637Z,-55.00
2018-03-18T14:58:02.613Z,-54.00
2018-03-18T14:59:02.578Z,-54.00
2018-03-18T15:00:02.548Z,-55.00
2018-03-18T15:01:02.527Z,-55.00
2018-03-18T15:02:02.497Z,-54.00
2018-03-18T15:03:02.471Z,-54.00
2018-03-18T15:04:02.442Z,-54.00
2018-03-18T15:05:02.418Z,-54.00
2018-03-18T15:06:02.394Z,-54.00
2018-03-18T15:07:02.363Z,-54.00
2018-03-18T15:08:02.336Z,-54.00
2018-03-18T15:09:02.310Z,-54.00
2018-03-18T15:10:02.290Z,-55.00
2018-03-18T15:11:02.257Z,-54.00
2018-03-18T15:12:02.235Z,-53.00
2018-03-18T15:13:02.206Z,-53.00
2018-03-18T15:14:02.184Z,-54.00
2018-03-18T15:15:02.151Z,-54.00
2018-03-18T15:16:02.130Z,-53.00
2018-03-18T15:17:02.133Z,-54.00
2018-03-18T15:18:02.082Z,-54.00
2018-03-18T15:19:02.049Z,-54.00
2018-03-18T15:20:02.031Z,-54.00
2018-03-18T15:21:01.999Z,-53.00
2018-03-18T15:22:01.969Z,-54.00
2018-03-18T15:23:01.948Z,-53.00
2018-03-18T15:24:01.919Z,-53.00
2018-03-18T15:25:01.889Z,-53.00
2018-03-18T15:26:01.864Z,-51.00
2018-03-18T15:27:01.839Z,-52.00
2018-03-18T15:28:01.811Z,-53.00
2018-03-18T15:29:01.789Z,-55.00
2018-03-18T15:30:01.756Z,-53.00
2018-03-18T15:31:01.774Z,-53.00
2018-03-18T15:32:01.709Z,-53.00
2018-03-18T15:33:01.680Z,-52.00
2018-03-18T15:34:01.652Z,-53.00
2018-03-18T15:35:01.629Z,-53.00
2018-03-18T15:36:01.604Z,-52.00
2018-03-18T15:37:01.575Z,-53.00
2018-03-18T15:38:01.552Z,-52.00
2018-03-18T15:39:01.525Z,-53.00
2018-03-18T15:40:01.499Z,-53.00
2018-03-18T15:41:01.472Z,-53.00
2018-03-18T15:42:01.442Z,-53.00
2018-03-18T15:43:01.426Z,-53.00
2018-03-18T15:44:01.393Z,-53.00
2018-03-18T15:45:01.367Z,-53.00
2018-03-18T15:46:01.336Z,-53.00
2018-03-18T15:47:01.312Z,-53.00
2018-03-18T15:48:01.285Z,-53.00
2018-03-18T15:49:01.262Z,-53.00
2018-03-18T15:50:01.234Z,-53.00
2018-03-18T15:51:01.204Z,-53.00
2018-03-18T15:52:01.181Z,-53.00
2018-03-18T15:53:01.159Z,-53.00
2018-03-18T15:54:01.133Z,-53.00
2018-03-18T15:55:01.106Z,-53.00
2018-03-18T15:56:01.075Z,-53.00
2018-03-18T15:57:01.053Z,-53.00
2018-03-18T15:58:01.024Z,-53.00
2018-03-18T15:59:00.998Z,-53.00
2018-03-18T16:00:00.987Z,-52.00
2018-03-18T16:01:00.950Z,-54.00
2018-03-18T16:02:00.918Z,-54.00
2018-03-18T16:03:00.895Z,-54.00
2018-03-18T16:04:00.867Z,-54.00
2018-03-18T16:05:00.837Z,-53.00
2018-03-18T16:06:00.814Z,-54.00
2018-03-18T16:07:00.811Z,-54.00
2018-03-18T16:08:00.759Z,-54.00
2018-03-18T16:09:00.734Z,-51.00
2018-03-18T16:10:00.706Z,-55.00
2018-03-18T16:11:00.702Z,-52.00
2018-03-18T16:12:00.655Z,-53.00
2018-03-18T16:13:00.633Z,-53.00
2018-03-18T16:14:00.605Z,-53.00
2018-03-18T16:15:00.574Z,-53.00
2018-03-18T16:16:00.548Z,-53.00
2018-03-18T16:17:00.526Z,-51.00
2018-03-18T16:18:00.495Z,-51.00
2018-03-18T16:19:00.472Z,-52.00
2018-03-18T16:20:00.443Z,-54.00
2018-03-18T16:21:00.416Z,-52.00
2018-03-18T16:22:00.393Z,-55.00
2018-03-18T16:23:00.368Z,-56.00
2018-03-18T16:24:00.345Z,-53.00
2018-03-18T16:25:00.311Z,-55.00
2018-03-18T16:26:00.286Z,-53.00
2018-03-18T16:27:00.260Z,-53.00
2018-03-18T16:28:00.237Z,-52.00
2018-03-18T16:29:00.211Z,-53.00
2018-03-18T16:30:00.190Z,-53.00
2018-03-18T16:31:00.154Z,-53.00
2018-03-18T16:32:00.129Z,-53.00
2018-03-18T16:33:00.104Z,-52.00
2018-03-18T16:34:00.075Z,-54.00
2018-03-18T16:35:00.047Z,-53.00
2018-03-18T16:36:00.023Z,-53.00
2018-03-18T16:36:59.997Z,-52.00
2018-03-18T16:37:59.972Z,-53.00
2018-03-18T16:38:59.944Z,-53.00
2018-03-18T16:39:59.920Z,-53.00
2018-03-18T16:40:59.891Z,-52.00
2018-03-18T16:41:59.869Z,-53.00
2018-03-18T16:42:59.840Z,-51.00
2018-03-18T16:43:59.818Z,-54.00
2018-03-18T16:44:59.789Z,-53.00
2018-03-18T16:45:59.765Z,-53.00
2018-03-18T16:46:59.733Z,-52.00
2018-03-18T16:47:59.711Z,-53.00
2018-03-18T16:48:59.684Z,-54.00
2018-03-18T16:49:59.655Z,-54.00
2018-03-18T16:50:59.630Z,-54.00
2018-03-18T16:51:59.599Z,-53.00
2018-03-18T16:52:59.580Z,-53.00
2018-03-18T16:53:59.552Z,-53.00
2018-03-18T16:54:59.525Z,-54.00
2018-03-18T16:55:59.499Z,-54.00
2018-03-18T16:56:59.480Z,-50.00
2018-03-18T16:57:59.449Z,-54.00
2018-03-18T16:58:59.416Z,-54.00
2018-03-18T16:59:59.393Z,-54.00
2018-03-18T17:00:59.371Z,-52.00
2018-03-18T17:01:59.351Z,-55.00
2018-03-18T17:02:59.315Z,-56.00
2018-03-18T17:03:59.289Z,-55.00
2018-03-18T17:04:59.261Z,-53.00
2018-03-18T17:05:59.235Z,-54.00
2018-03-18T17:06:59.208Z,-52.00
2018-03-18T17:07:59.183Z,-51.00
2018-03-18T17:08:59.168Z,-54.00
2018-03-18T17:09:59.131Z,-52.00
2018-03-18T17:10:59.106Z,-51.00
2018-03-18T17:11:59.129Z,-51.00
2018-03-18T17:12:59.053Z,-51.00
2018-03-18T17:13:59.026Z,-52.00
2018-03-18T17:14:59.005Z,-53.00
2018-03-18T17:15:58.973Z,-55.00
2018-03-18T17:16:58.950Z,-54.00
2018-03-18T17:17:58.943Z,-52.00
2018-03-18T17:18:58.891Z,-52.00
2018-03-18T17:19:58.866Z,-52.00
2018-03-18T17:20:58.843Z,-51.00
2018-03-18T17:21:58.819Z,-52.00
2018-03-18T17:22:58.786Z,-52.00
2018-03-18T17:23:58.763Z,-52.00
2018-03-18T17:24:58.738Z,-52.00
2018-03-18T17:25:58.710Z,-52.00
2018-03-18T17:26:58.683Z,-52.00
2018-03-18T17:27:58.660Z,-52.00
2018-03-18T17:28:58.630Z,-52.00
2018-03-18T17:29:58.601Z,-52.00
2018-03-18T17:30:58.582Z,-52.00
2018-03-18T17:31:58.551Z,-52.00
2018-03-18T17:32:58.524Z,-52.00
2018-03-18T17:33:58.496Z,-52.00
2018-03-18T17:34:58.472Z,-52.00
2018-03-18T17:35:58.448Z,-52.00
2018-03-18T17:36:58.473Z,-52.00
2018-03-18T17:37:58.395Z,-52.00
2018-03-18T17:38:58.371Z,-52.00
2018-03-18T17:39:58.352Z,-52.00
2018-03-18T17:40:58.315Z,-52.00
2018-03-18T17:41:58.292Z,-52.00
2018-03-18T17:42:58.264Z,-55.00
2018-03-18T17:43:58.236Z,-54.00
2018-03-18T17:44:58.208Z,-52.00
2018-03-18T17:45:58.179Z,-53.00
2018-03-18T17:46:58.155Z,-53.00
2018-03-18T17:47:58.158Z,-53.00
2018-03-18T17:48:58.102Z,-52.00
2018-03-18T17:49:58.078Z,-53.00
2018-03-18T17:50:58.051Z,-53.00
2018-03-18T17:51:58.022Z,-53.00
2018-03-18T17:52:58.006Z,-51.00
2018-03-18T17:53:57.970Z,-52.00
2018-03-18T17:54:57.942Z,-52.00
2018-03-18T17:55:57.916Z,-54.00
2018-03-18T17:56:57.892Z,-54.00
2018-03-18T17:57:57.864Z,-52.00
2018-03-18T17:58:57.839Z,-52.00
2018-03-18T17:59:57.815Z,-52.00
2018-03-18T18:00:57.920Z,-52.00
2018-03-18T18:01:57.761Z,-53.00
2018-03-18T18:02:57.732Z,-53.00
2018-03-18T18:03:57.707Z,-52.00
2018-03-18T18:04:57.680Z,-52.00
2018-03-18T18:05:57.655Z,-52.00
2018-03-18T18:06:57.631Z,-52.00
2018-03-18T18:07:57.604Z,-51.00
2018-03-18T18:08:57.577Z,-52.00
2018-03-18T18:09:57.550Z,-57.00
2018-03-18T18:10:57.523Z,-53.00
2018-03-18T18:11:57.499Z,-56.00
2018-03-18T18:12:57.474Z,-55.00
2018-03-18T18:13:57.478Z,-59.00
2018-03-18T18:14:57.420Z,-54.00
2018-03-18T18:15:57.403Z,-54.00
2018-03-18T18:16:57.368Z,-54.00
2018-03-18T18:17:57.404Z,-53.00
2018-03-18T18:18:57.314Z,-54.00
2018-03-18T18:19:57.285Z,-54.00
2018-03-18T18:20:57.264Z,-54.00
2018-03-18T18:21:57.233Z,-53.00
2018-03-18T18:22:57.213Z,-54.00
2018-03-18T18:23:57.183Z,-51.00
2018-03-18T18:24:57.154Z,-51.00
2018-03-18T18:25:57.134Z,-53.00
2018-03-18T18:26:57.103Z,-53.00
2018-03-18T18:27:57.077Z,-52.00
2018-03-18T18:28:57.060Z,-52.00
2018-03-18T18:29:57.025Z,-53.00
2018-03-18T18:30:57.000Z,-53.00
2018-03-18T18:31:56.971Z,-53.00
2018-03-18T18:32:56.949Z,-53.00
2018-03-18T18:33:56.919Z,-54.00
2018-03-18T18:34:56.894Z,-54.00
2018-03-18T18:35:56.868Z,-53.00
2018-03-18T18:36:56.847Z,-53.00
2018-03-18T18:37:56.814Z,-53.00
2018-03-18T18:38:56.790Z,-53.00
2018-03-18T18:39:56.762Z,-54.00
2018-03-18T18:40:56.737Z,-53.00
2018-03-18T18:41:56.717Z,-53.00
2018-03-18T18:42:56.680Z,-53.00
2018-03-18T18:43:56.658Z,-52.00
2018-03-18T18:44:56.632Z,-54.00
2018-03-18T18:45:56.604Z,-53.00
2018-03-18T18:46:56.578Z,-52.00
2018-03-18T18:47:56.556Z,-52.00
2018-03-18T18:48:56.528Z,-52.00
2018-03-18T18:49:56.495Z,-52.00
2018-03-18T18:50:56.473Z,-52.00
2018-03-18T18:51:56.451Z,-52.00
2018-03-18T18:52:56.421Z,-52.00
2018-03-18T18:53:56.390Z,-53.00
2018-03-18T18:54:56.374Z,-53.00
2018-03-18T18:55:56.340Z,-53.00
2018-03-18T18:56:56.315Z,-53.00
2018-03-18T18:57:56.285Z,-53.00
2018-03-18T18:58:56.260Z,-53.00
2018-03-18T18:59:56.231Z,-54.00
2018-03-18T19:00:56.222Z,-54.00
2018-03-18T19:01:56.177Z,-53.00
2018-03-18T19:02:56.185Z,-54.00
2018-03-18T19:03:56.128Z,-53.00
2018-03-18T19:04:56.103Z,-53.00
2018-03-18T19:05:56.074Z,-53.00
2018-03-18T19:06:56.046Z,-53.00
2018-03-18T19:07:56.022Z,-53.00
2018-03-18T19:08:55.999Z,-53.00
2018-03-18T19:09:55.970Z,-53.00
2018-03-18T19:10:55.957Z,-54.00
2018-03-18T19:11:55.915Z,-53.00
2018-03-18T19:12:55.887Z,-54.00
2018-03-18T19:13:55.861Z,-53.00
2018-03-18T19:14:55.838Z,-54.00
2018-03-18T19:15:55.807Z,-53.00
2018-03-18T19:16:55.788Z,-53.00
2018-03-18T19:17:55.757Z,-53.00
2018-03-18T19:18:55.733Z,-54.00
2018-03-18T19:19:55.701Z,-54.00
2018-03-18T19:20:55.676Z,-54.00
2018-03-18T19:21:55.676Z,-53.00
2018-03-18T19:22:55.625Z,-53.00
2018-03-18T19:23:55.598Z,-54.00
2018-03-18T19:24:55.578Z,-53.00
2018-03-18T19:25:55.545Z,-54.00
2018-03-18T19:26:55.524Z,-53.00
2018-03-18T19:27:55.493Z,-53.00
2018-03-18T19:28:55.470Z,-53.00
2018-03-18T19:29:55.442Z,-53.00
2018-03-18T19:30:55.413Z,-54.00
2018-03-18T19:31:55.386Z,-53.00
2018-03-18T19:32:55.358Z,-53.00
2018-03-18T19:33:55.335Z,-53.00
2018-03-18T19:34:55.306Z,-54.00
2018-03-18T19:35:55.296Z,-53.00
2018-03-18T19:36:55.258Z,-53.00
2018-03-18T19:37:55.225Z,-53.00
2018-03-18T19:38:55.203Z,-54.00
2018-03-18T19:39:55.175Z,-53.00
2018-03-18T19:40:55.143Z,-53.00
2018-03-18T19:41:55.119Z,-53.00
2018-03-18T19:42:55.092Z,-54.00
2018-03-18T19:43:55.060Z,-53.00
2018-03-18T19:44:55.038Z,-53.00
2018-03-18T19:45:55.010Z,-53.00
2018-03-18T19:46:54.988Z,-53.00
2018-03-18T19:47:54.962Z,-54.00
2018-03-18T19:48:54.933Z,-54.00
2018-03-18T19:49:54.903Z,-53.00
2018-03-18T19:50:54.877Z,-53.00
2018-03-18T19:51:54.853Z,-53.00
2018-03-18T19:52:54.824Z,-54.00
2018-03-18T19:53:54.795Z,-54.00
2018-03-18T19:54:54.771Z,-53.00
2018-03-18T19:55:54.748Z,-53.00
2018-03-18T19:56:54.716Z,-54.00
2018-03-18T19:57:54.690Z,-53.00
2018-03-18T19:58:54.660Z,-53.00
2018-03-18T19:59:54.640Z,-53.00
2018-03-18T20:00:54.627Z,-53.00
2018-03-18T20:01:54.580Z,-53.00
2018-03-18T20:02:54.558Z,-54.00
2018-03-18T20:03:54.523Z,-54.00
2018-03-18T20:04:54.506Z,-53.00
2018-03-18T20:05:54.476Z,-53.00
2018-03-18T20:06:54.446Z,-53.00
2018-03-18T20:07:54.447Z,-53.00
2018-03-18T20:08:54.392Z,-53.00
2018-03-18T20:09:54.365Z,-53.00
2018-03-18T20:10:54.432Z,-53.00
2018-03-18T20:11:54.310Z,-54.00
2018-03-18T20:12:54.294Z,-53.00
2018-03-18T20:13:54.256Z,-53.00
2018-03-18T20:14:54.232Z,-54.00
2018-03-18T20:15:54.212Z,-54.00
2018-03-18T20:16:54.176Z,-54.00
2018-03-18T20:17:54.151Z,-53.00
2018-03-18T20:18:54.123Z,-53.00
2018-03-18T20:19:54.120Z,-53.00
2018-03-18T20:20:54.068Z,-53.00
2018-03-18T20:21:54.041Z,-54.00
2018-03-18T20:22:54.018Z,-53.00
2018-03-18T20:23:53.988Z,-53.00
2018-03-18T20:24:53.969Z,-53.00
2018-03-18T20:25:53.934Z,-53.00
2018-03-18T20:26:53.905Z,-53.00
2018-03-18T20:27:53.880Z,-53.00
2018-03-18T20:28:53.849Z,-53.00
2018-03-18T20:29:53.824Z,-53.00
2018-03-18T20:30:53.804Z,-54.00
2018-03-18T20:31:53.770Z,-53.00
2018-03-18T20:32:53.743Z,-53.00
2018-03-18T20:33:53.768Z,-53.00
2018-03-18T20:34:53.688Z,-53.00
2018-03-18T20:35:53.662Z,-53.00
2018-03-18T20:36:53.637Z,-53.00